Time;durP1;ratioP1;P1;durP2;ratioP2;P2;SDS_P1;SDS_P2;PMS_P1;PMS_P2;Temp;Humidity;BMP_temperature;BMP_pressure;BME280_temperature;BME280_humidity;BME280_pressure;Samples;Min_cycle;Max_cycle;Signal;HPM_P1;HPM_P2
2023/10/03 00:01:18;;;;;;;;;;;;;;;17.98;43.60;100756.41;4947828;28;99325;-62
2023/10/03 00:03:45;;;;;;;;;;;;;;;17.96;43.66;100752.38;4944931;28;98073;-62
2023/10/03 00:06:11;;;;;;;;;;;;;;;17.92;43.66;100749.47;4942886;28;98282;-62
2023/10/03 00:08:38;;;;;;;;;;;;;;;17.88;43.59;100743.84;4941150;28;98605;-55
2023/10/03 00:11:05;;;;;;;;;;;;;;;17.86;43.51;100743.31;4959648;28;98582;-55
2023/10/03 00:13:31;;;;;;;;;;;;;;;17.83;43.47;100741.22;4942286;28;98413;-56
2023/10/03 00:15:57;;;;;;;;;;;;;;;17.81;43.53;100742.66;4945229;28;121440;-55
2023/10/03 00:18:23;;;;;;;;;;;;;;;17.77;43.63;100744.38;4946422;28;100188;-62
2023/10/03 00:20:49;;;;;;;;;;;;;;;17.74;43.56;100745.75;4960396;28;98501;-57
2023/10/03 00:23:15;;;;;;;;;;;;;;;17.71;43.45;100745.56;4955350;28;98680;-56
2023/10/03 00:25:42;;;;;;;;;;;;;;;17.67;43.67;100746.19;4941725;28;99309;-60
2023/10/03 00:28:11;;;;;;;;;;;;;;;17.65;43.79;100745.69;4959443;28;100782;-60
2023/10/03 00:30:40;;;;;;;;;;;;;;;17.62;43.73;100743.59;4961453;28;98070;-54
2023/10/03 00:33:10;;;;;;;;;;;;;;;17.59;43.74;100732.50;4960511;28;98646;-62
2023/10/03 00:35:37;;;;;;;;;;;;;;;17.55;43.67;100729.56;4923647;28;100296;-61
2023/10/03 00:38:09;;;;;;;;;;;;;;;17.52;43.71;100723.94;4961059;28;99799;-61
2023/10/03 00:40:36;;;;;;;;;;;;;;;17.49;43.36;100719.09;4957790;28;98693;-55
2023/10/03 00:43:02;;;;;;;;;;;;;;;17.43;43.75;100719.22;4922166;28;98229;-55
2023/10/03 00:45:32;;;;;;;;;;;;;;;17.40;43.75;100716.28;4962398;28;98399;-55
2023/10/03 00:48:02;;;;;;;;;;;;;;;17.35;43.66;100709.03;4959968;28;100035;-62
2023/10/03 00:50:31;;;;;;;;;;;;;;;17.32;43.65;100706.13;4944289;28;98834;-55
2023/10/03 00:53:00;;;;;;;;;;;;;;;17.28;43.83;100703.19;4955904;28;98242;-62
2023/10/03 00:55:27;;;;;;;;;;;;;;;17.25;43.80;100703.84;4958461;28;98532;-55
2023/10/03 00:58:06;;;;;;;;;;;;;;;17.22;43.65;100696.28;4925863;28;100842;-62
2023/10/03 01:00:38;;;;;;;;;;;;;;;17.19;43.86;100694.16;4935106;28;98806;-56
2023/10/03 01:03:05;;;;;;;;;;;;;;;17.16;43.64;100692.84;4956439;28;99506;-55
2023/10/03 01:05:31;;;;;;;;;;;;;;;17.12;43.71;100691.84;4940418;28;99785;-55
2023/10/03 01:07:59;;;;;;;;;;;;;;;17.11;43.73;100694.88;4971878;27;98781;-55
2023/10/03 01:10:25;;;;;;;;;;;;;;;17.07;43.83;100694.69;4956261;28;98237;-56
2023/10/03 01:12:54;;;;;;;;;;;;;;;17.04;43.87;100684.38;4942043;28;101451;-62
2023/10/03 01:15:21;;;;;;;;;;;;;;;17.02;43.71;100688.53;4954616;28;99919;-55
2023/10/03 01:17:53;;;;;;;;;;;;;;;16.99;43.74;100681.78;4942844;28;99815;-55
2023/10/03 01:20:28;;;;;;;;;;;;;;;16.96;43.85;100673.41;4943238;28;99732;-61
2023/10/03 01:22:55;;;;;;;;;;;;;;;16.93;43.81;100677.53;4948140;28;99392;-61
2023/10/03 01:25:22;;;;;;;;;;;;;;;16.89;43.78;100674.63;4944465;28;98711;-61
2023/10/03 01:27:48;;;;;;;;;;;;;;;16.85;43.86;100672.81;4926913;28;100182;-61
2023/10/03 01:30:15;;;;;;;;;;;;;;;16.83;43.90;100683.22;4963678;28;98593;-55
2023/10/03 01:32:45;;;;;;;;;;;;;;;16.80;44.04;100673.72;4947039;28;98029;-61
2023/10/03 01:35:12;;;;;;;;;;;;;;;16.77;44.02;100674.34;4955767;28;98367;-62
2023/10/03 01:37:40;;;;;;;;;;;;;;;16.74;43.96;100665.97;4944026;28;98607;-62
2023/10/03 01:40:13;;;;;;;;;;;;;;;16.70;43.83;100668.44;4942111;28;100717;-62
2023/10/03 01:42:45;;;;;;;;;;;;;;;16.67;43.79;100664.44;4941395;28;98420;-56
2023/10/03 01:45:17;;;;;;;;;;;;;;;16.65;43.88;100661.19;4938526;28;98295;-55
2023/10/03 01:47:49;;;;;;;;;;;;;;;16.62;43.89;100666.44;4956373;28;99428;-62
2023/10/03 01:50:17;;;;;;;;;;;;;;;16.55;44.09;100652.47;4959745;28;98472;-55
2023/10/03 01:52:43;;;;;;;;;;;;;;;16.51;44.09;100654.97;4942851;28;97977;-61
2023/10/03 01:55:13;;;;;;;;;;;;;;;16.45;43.92;100643.38;4942892;28;98588;-61
2023/10/03 01:57:42;;;;;;;;;;;;;;;16.41;44.05;100647.81;4927064;28;98526;-61
2023/10/03 02:00:25;;;;;;;;;;;;;;;16.38;44.11;100645.69;4973368;27;128170;-55
2023/10/03 02:02:56;;;;;;;;;;;;;;;16.34;44.06;100641.16;4959208;28;98254;-62
2023/10/03 02:05:26;;;;;;;;;;;;;;;16.30;43.96;100640.13;4944651;28;98220;-62
2023/10/03 02:07:55;;;;;;;;;;;;;;;16.25;44.04;100627.44;4940865;28;98434;-56
2023/10/03 02:10:22;;;;;;;;;;;;;;;16.19;44.23;100621.31;4956205;28;98272;-62
2023/10/03 02:12:49;;;;;;;;;;;;;;;16.16;44.05;100615.66;4920201;28;99389;-61
2023/10/03 02:15:17;;;;;;;;;;;;;;;16.12;43.99;100614.66;4937538;28;98190;-55
2023/10/03 02:17:46;;;;;;;;;;;;;;;16.07;44.09;100610.13;4960119;28;99500;-56
2023/10/03 02:20:16;;;;;;;;;;;;;;;16.03;44.11;100597.41;4941590;28;99760;-62
2023/10/03 02:22:42;;;;;;;;;;;;;;;15.99;44.00;100608.06;4956553;28;98129;-62
2023/10/03 02:25:09;;;;;;;;;;;;;;;15.96;44.09;100603.25;4943252;28;99627;-61
2023/10/03 02:27:35;;;;;;;;;;;;;;;15.93;44.02;100598.41;4945138;28;99246;-56
2023/10/03 02:30:08;;;;;;;;;;;;;;;15.90;44.19;100594.38;4921878;28;98726;-62
2023/10/03 02:32:35;;;;;;;;;;;;;;;15.89;44.05;100594.69;4943946;28;99019;-55
2023/10/03 02:35:01;;;;;;;;;;;;;;;15.87;44.01;100586.81;4976296;27;98118;-62
2023/10/03 02:37:27;;;;;;;;;;;;;;;15.86;44.07;100589.84;4943835;28;100062;-62
2023/10/03 02:39:55;;;;;;;;;;;;;;;15.85;44.16;100590.97;4954765;28;100968;-55
2023/10/03 02:42:21;;;;;;;;;;;;;;;15.82;44.09;100586.91;4974653;27;98189;-62
2023/10/03 02:44:47;;;;;;;;;;;;;;;15.80;44.06;100572.00;4968657;27;99424;-62
2023/10/03 02:47:14;;;;;;;;;;;;;;;15.77;44.02;100575.34;4959592;28;101664;-62
2023/10/03 02:49:41;;;;;;;;;;;;;;;15.73;44.13;100577.84;4929973;28;98531;-55
2023/10/03 02:52:07;;;;;;;;;;;;;;;15.68;44.03;100565.16;4939462;28;98646;-56
2023/10/03 02:54:33;;;;;;;;;;;;;;;15.64;44.18;100557.84;4951374;28;121554;-60
2023/10/03 02:56:59;;;;;;;;;;;;;;;15.59;44.12;100547.88;4954975;28;111360;-62
2023/10/03 02:59:25;;;;;;;;;;;;;;;15.56;44.19;100542.25;4956305;28;100874;-62
2023/10/03 03:01:52;;;;;;;;;;;;;;;15.51;44.26;100535.00;4956025;28;98323;-55
2023/10/03 03:04:21;;;;;;;;;;;;;;;15.47;44.09;100540.22;4956585;28;98335;-55
2023/10/03 03:06:47;;;;;;;;;;;;;;;15.41;44.42;100527.84;4944069;28;99386;-62
2023/10/03 03:09:23;;;;;;;;;;;;;;;15.38;44.24;100520.28;4926878;28;98329;-55
2023/10/03 03:11:50;;;;;;;;;;;;;;;15.36;44.16;100518.94;4940356;28;100020;-62
2023/10/03 03:14:16;;;;;;;;;;;;;;;15.34;44.06;100519.25;4959711;27;98176;-56
2023/10/03 03:16:47;;;;;;;;;;;;;;;15.34;44.44;100519.25;4916835;28;98391;-55
2023/10/03 03:19:14;;;;;;;;;;;;;;;15.32;44.05;100510.59;4941284;28;98802;-56
2023/10/03 03:21:41;;;;;;;;;;;;;;;15.33;44.23;100512.22;4924010;28;98569;-62
2023/10/03 03:24:10;;;;;;;;;;;;;;;15.31;44.27;100509.00;4936684;28;98589;-55
2023/10/03 03:26:39;;;;;;;;;;;;;;;15.29;44.28;100496.81;4939252;28;99231;-55
2023/10/03 03:29:19;;;;;;;;;;;;;;;15.25;44.18;100495.78;4964981;28;103165;-62
2023/10/03 03:31:46;;;;;;;;;;;;;;;15.21;44.31;100484.75;4942087;28;99488;-55
2023/10/03 03:34:12;;;;;;;;;;;;;;;15.20;44.45;100477.69;4941897;28;98655;-55
2023/10/03 03:36:40;;;;;;;;;;;;;;;15.18;44.11;100479.91;4959102;28;98359;-56
2023/10/03 03:39:14;;;;;;;;;;;;;;;15.16;44.40;100471.22;4955070;28;98401;-62
2023/10/03 03:41:42;;;;;;;;;;;;;;;15.14;44.46;100465.31;4957396;28;98432;-55
2023/10/03 03:44:11;;;;;;;;;;;;;;;15.10;44.21;100459.66;4939687;28;98382;-55
2023/10/03 03:46:40;;;;;;;;;;;;;;;15.07;44.32;100451.31;4942416;28;98624;-54
2023/10/03 03:49:10;;;;;;;;;;;;;;;15.06;44.24;100460.56;4940825;28;99646;-61
2023/10/03 03:51:36;;;;;;;;;;;;;;;15.04;44.40;100455.41;4922553;28;99706;-56
2023/10/03 03:54:12;;;;;;;;;;;;;;;15.04;44.41;100455.41;4939418;28;98226;-63
2023/10/03 03:56:40;;;;;;;;;;;;;;;15.03;44.40;100447.56;4957947;28;99972;-55
2023/10/03 03:59:06;;;;;;;;;;;;;;;15.02;44.43;100444.06;4941091;28;98765;-61
2023/10/03 04:01:33;;;;;;;;;;;;;;;15.01;44.27;100452.47;4936531;28;98401;-55
2023/10/03 04:04:00;;;;;;;;;;;;;;;15.00;44.33;100434.59;4972787;27;98035;-62
2023/10/03 04:06:26;;;;;;;;;;;;;;;15.00;44.51;100438.13;4955014;28;99608;-62
2023/10/03 04:08:52;;;;;;;;;;;;;;;14.99;44.18;100439.22;4939293;28;98517;-61
2023/10/03 04:11:18;;;;;;;;;;;;;;;14.97;44.60;100431.38;4971782;27;99202;-55
2023/10/03 04:13:53;;;;;;;;;;;;;;;14.96;44.22;100434.38;4951662;28;100594;-55
2023/10/03 04:16:21;;;;;;;;;;;;;;;14.93;44.45;100429.53;4937828;28;98060;-55
2023/10/03 04:18:50;;;;;;;;;;;;;;;14.88;44.48;100426.91;4921204;28;98496;-62
2023/10/03 04:21:19;;;;;;;;;;;;;;;14.83;44.48;100419.66;4938677;28;99264;-61
2023/10/03 04:23:47;;;;;;;;;;;;;;;14.78;44.50;100419.75;4940361;28;98441;-55
2023/10/03 04:26:13;;;;;;;;;;;;;;;14.73;44.43;100408.97;4938878;28;98697;-56
2023/10/03 04:28:40;;;;;;;;;;;;;;;14.69;44.62;100408.75;4957103;28;100055;-56
2023/10/03 04:31:07;;;;;;;;;;;;;;;14.67;44.45;100404.75;4940727;28;98937;-55
2023/10/03 04:33:34;;;;;;;;;;;;;;;14.62;44.46;100394.78;4942120;28;98384;-55
2023/10/03 04:36:05;;;;;;;;;;;;;;;14.58;44.59;100396.47;4924584;28;98212;-62
2023/10/03 04:38:31;;;;;;;;;;;;;;;14.54;44.32;100390.03;4947178;28;99980;-62
2023/10/03 04:40:58;;;;;;;;;;;;;;;14.52;44.60;100383.28;4943755;28;99367;-62
2023/10/03 04:43:27;;;;;;;;;;;;;;;14.48;44.39;100391.97;4939228;28;98044;-62
2023/10/03 04:45:53;;;;;;;;;;;;;;;14.47;44.44;100395.78;4945612;28;99793;-62
2023/10/03 04:48:20;;;;;;;;;;;;;;;14.45;44.38;100392.56;4932107;28;100268;-56
2023/10/03 04:50:46;;;;;;;;;;;;;;;14.45;44.42;100400.69;4975729;27;98272;-55
2023/10/03 04:53:15;;;;;;;;;;;;;;;14.45;44.71;100389.03;4946607;28;120105;-62
2023/10/03 04:55:47;;;;;;;;;;;;;;;14.44;44.69;100388.25;4945958;28;99556;-56
2023/10/03 04:58:13;;;;;;;;;;;;;;;14.43;44.64;100394.78;4956328;28;100827;-56
2023/10/03 05:00:39;;;;;;;;;;;;;;;14.42;44.55;100390.47;4976070;27;100156;-56
2023/10/03 05:03:09;;;;;;;;;;;;;;;14.42;44.71;100386.91;4956433;28;98170;-55
2023/10/03 05:05:35;;;;;;;;;;;;;;;14.41;44.60;100388.81;4943590;28;98113;-56
2023/10/03 05:08:02;;;;;;;;;;;;;;;14.41;44.44;100396.97;4945290;28;99385;-62
2023/10/03 05:10:33;;;;;;;;;;;;;;;14.41;44.53;100394.25;4940912;28;98671;-63
2023/10/03 05:12:59;;;;;;;;;;;;;;;14.42;44.54;100390.47;4960393;28;98401;-63
2023/10/03 05:15:26;;;;;;;;;;;;;;;14.43;44.50;100388.56;4957504;28;98471;-55
2023/10/03 05:17:54;;;;;;;;;;;;;;;14.42;44.60;100390.47;4958774;28;98369;-62
2023/10/03 05:20:20;;;;;;;;;;;;;;;14.44;44.25;100393.66;4959897;28;99758;-62
2023/10/03 05:22:47;;;;;;;;;;;;;;;14.46;44.33;100393.38;4917621;28;98156;-62
2023/10/03 05:25:18;;;;;;;;;;;;;;;14.46;44.54;100390.66;4940303;28;98306;-55
2023/10/03 05:27:48;;;;;;;;;;;;;;;14.46;44.23;100386.06;4945046;28;98137;-62
2023/10/03 05:30:14;;;;;;;;;;;;;;;14.47;44.69;100384.94;4942835;28;98794;-61
2023/10/03 05:32:42;;;;;;;;;;;;;;;14.49;44.28;100385.47;4944938;28;98043;-62
2023/10/03 05:35:09;;;;;;;;;;;;;;;14.51;44.23;100385.19;4923325;28;99116;-62
2023/10/03 05:37:35;;;;;;;;;;;;;;;14.52;44.40;100373.25;4942393;28;99838;-55
2023/10/03 05:40:20;;;;;;;;;;;;;;;14.56;44.32;100382.41;4972154;27;98252;-56
2023/10/03 05:42:49;;;;;;;;;;;;;;;14.62;44.43;100380.41;4959204;28;99470;-55
2023/10/03 05:45:17;;;;;;;;;;;;;;;14.67;44.23;100378.41;4942559;28;98905;-62
2023/10/03 05:47:46;;;;;;;;;;;;;;;14.75;44.09;100387.00;4944120;28;99806;-62
2023/10/03 05:50:21;;;;;;;;;;;;;;;14.82;44.11;100382.00;4928111;28;101715;-55
2023/10/03 05:52:48;;;;;;;;;;;;;;;14.90;44.17;100375.88;4926124;28;97940;-56
2023/10/03 05:55:14;;;;;;;;;;;;;;;15.01;44.52;100365.63;4945276;28;98266;-62
2023/10/03 05:57:42;;;;;;;;;;;;;;;15.13;44.26;100369.50;4941387;28;98190;-62
2023/10/03 06:00:18;;;;;;;;;;;;;;;15.27;44.12;100366.78;4942749;28;98196;-62
2023/10/03 06:02:47;;;;;;;;;;;;;;;15.42;44.52;100369.19;4958723;28;98196;-56
2023/10/03 06:05:16;;;;;;;;;;;;;;;15.61;44.83;100374.53;4955465;28;99860;-55
2023/10/03 06:07:42;;;;;;;;;;;;;;;15.80;44.71;100370.91;4953859;28;100068;-55
2023/10/03 06:10:10;;;;;;;;;;;;;;;16.00;44.35;100359.59;4919875;28;99329;-56
2023/10/03 06:12:37;;;;;;;;;;;;;;;16.23;45.69;100365.06;4919520;28;98118;-56
2023/10/03 06:15:04;;;;;;;;;;;;;;;16.44;44.16;100360.75;4914774;28;100207;-55
2023/10/03 06:17:32;;;;;;;;;;;;;;;16.65;44.03;100355.63;4967412;27;99675;-55
2023/10/03 06:19:58;;;;;;;;;;;;;;;16.84;44.20;100342.63;4954715;28;100208;-61
2023/10/03 06:22:24;;;;;;;;;;;;;;;17.02;44.28;100343.53;4938040;28;98363;-56
2023/10/03 06:24:53;;;;;;;;;;;;;;;17.13;44.42;100339.44;4955205;28;98371;-61
2023/10/03 06:27:19;;;;;;;;;;;;;;;17.27;45.17;100333.06;4953568;28;98876;-55
2023/10/03 06:29:47;;;;;;;;;;;;;;;17.40;44.20;100329.41;4940578;28;99181;-62
2023/10/03 06:32:13;;;;;;;;;;;;;;;17.53;43.92;100325.78;4964841;27;100607;-56
2023/10/03 06:34:39;;;;;;;;;;;;;;;17.63;44.44;100320.00;4954853;28;108369;-56
2023/10/03 06:37:05;;;;;;;;;;;;;;;17.75;45.07;100324.88;4942255;28;99960;-61
2023/10/03 06:39:31;;;;;;;;;;;;;;;17.85;44.80;100318.34;4974715;27;98921;-62
2023/10/03 06:41:58;;;;;;;;;;;;;;;17.96;44.38;100316.91;4935968;28;98100;-56
2023/10/03 06:44:24;;;;;;;;;;;;;;;18.15;44.07;100319.28;4951572;28;100435;-62
2023/10/03 06:46:51;;;;;;;;;;;;;;;18.35;44.53;100321.38;4949669;28;98546;-62
2023/10/03 06:49:17;;;;;;;;;;;;;;;18.51;44.20;100324.41;4937717;28;99075;-57
2023/10/03 06:51:44;;;;;;;;;;;;;;;18.61;44.29;100323.25;4955563;28;99028;-56
2023/10/03 06:54:10;;;;;;;;;;;;;;;18.80;44.82;100321.00;4950223;28;98499;-56
2023/10/03 06:56:37;;;;;;;;;;;;;;;18.95;44.30;100329.78;4937664;28;98273;-62
2023/10/03 06:59:04;;;;;;;;;;;;;;;19.04;44.16;100325.88;4934813;28;98229;-62
2023/10/03 07:01:30;;;;;;;;;;;;;;;19.12;44.13;100322.31;4934926;28;98251;-56
2023/10/03 07:03:58;;;;;;;;;;;;;;;19.23;43.98;100330.16;4951389;28;98768;-56
2023/10/03 07:06:24;;;;;;;;;;;;;;;19.34;44.10;100321.25;4949450;28;98343;-62
2023/10/03 07:08:51;;;;;;;;;;;;;;;19.44;43.76;100313.81;4923229;28;98289;-56
2023/10/03 07:11:17;;;;;;;;;;;;;;;19.55;44.05;100312.28;4950772;28;99016;-62
2023/10/03 07:13:44;;;;;;;;;;;;;;;19.64;43.60;100313.06;4933563;28;102193;-57
2023/10/03 07:16:11;;;;;;;;;;;;;;;19.76;43.86;100310.41;4941245;28;99577;-56
2023/10/03 07:18:38;;;;;;;;;;;;;;;19.87;43.85;100302.63;4937750;28;98726;-63
2023/10/03 07:21:04;;;;;;;;;;;;;;;20.00;43.78;100303.47;4956060;28;98274;-56
2023/10/03 07:23:31;;;;;;;;;;;;;;;20.14;43.62;100298.53;4920130;28;120257;-56
2023/10/03 07:25:57;;;;;;;;;;;;;;;20.33;43.37;100303.53;4935904;28;100124;-62
2023/10/03 07:28:22;;;;;;;;;;;;;;;20.50;43.34;100300.63;4935051;28;129108;-56
2023/10/03 07:30:49;;;;;;;;;;;;;;;20.65;43.24;100299.19;4938055;28;98305;-56
2023/10/03 07:33:15;;;;;;;;;;;;;;;20.75;43.28;100298.75;4955780;28;98156;-62
2023/10/03 07:35:44;;;;;;;;;;;;;;;20.83;43.27;100292.38;4937639;28;98733;-62
2023/10/03 07:38:11;;;;;;;;;;;;;;;20.96;43.21;100284.97;4919879;28;99123;-56
2023/10/03 07:40:38;;;;;;;;;;;;;;;20.97;43.32;100288.50;4952079;28;99400;-63
2023/10/03 07:43:09;;;;;;;;;;;;;;;21.09;43.19;100277.56;4936719;28;98879;-62
2023/10/03 07:45:37;;;;;;;;;;;;;;;21.27;43.06;100281.66;4939435;28;100141;-56
2023/10/03 07:48:05;;;;;;;;;;;;;;;21.47;42.84;100290.94;4950380;28;98770;-62
2023/10/03 07:50:35;;;;;;;;;;;;;;;21.72;43.01;100282.66;4954362;28;98503;-62
2023/10/03 07:53:05;;;;;;;;;;;;;;;21.94;42.75;100292.31;4936774;28;99922;-56
2023/10/03 07:55:35;;;;;;;;;;;;;;;22.22;42.44;100289.63;4938857;28;98522;-56
2023/10/03 07:58:02;;;;;;;;;;;;;;;22.63;42.42;100293.84;4951448;28;98262;-62
2023/10/03 08:00:28;;;;;;;;;;;;;;;22.88;42.19;100286.25;4932161;28;98449;-56
2023/10/03 08:02:55;;;;;;;;;;;;;;;23.03;42.17;100287.44;4949225;28;100392;-56
2023/10/03 08:05:27;;;;;;;;;;;;;;;23.06;41.91;100283.16;4932953;28;100349;-62
2023/10/03 08:07:54;;;;;;;;;;;;;;;23.29;41.79;100275.88;4948052;28;99181;-56
2023/10/03 08:10:20;;;;;;;;;;;;;;;23.41;41.73;100272.22;4947960;28;98240;-56
2023/10/03 08:12:50;;;;;;;;;;;;;;;24.01;41.15;100272.72;4972159;27;98914;-63
2023/10/03 08:15:18;;;;;;;;;;;;;;;24.67;40.50;100257.88;4934452;28;98301;-62
2023/10/03 08:17:45;;;;;;;;;;;;;;;25.49;39.88;100249.31;4944295;28;99134;-63
2023/10/03 08:20:14;;;;;;;;;;;;;;;26.06;39.73;100247.31;4939222;28;99863;-56
2023/10/03 08:22:50;;;;;;;;;;;;;;;26.32;39.88;100249.16;4942743;28;99915;-56
2023/10/03 08:25:21;;;;;;;;;;;;;;;28.43;37.88;100245.75;4941945;28;98947;-63
2023/10/03 08:27:49;;;;;;;;;;;;;;;30.69;36.01;100251.44;4918378;28;98639;-63
2023/10/03 08:30:29;;;;;;;;;;;;;;;32.10;35.04;100253.16;4917993;28;98429;-57
2023/10/03 08:33:01;;;;;;;;;;;;;;;33.57;34.37;100259.16;4942002;28;98298;-61
2023/10/03 08:35:37;;;;;;;;;;;;;;;34.83;34.13;100267.13;4952466;28;98297;-55
2023/10/03 08:38:12;;;;;;;;;;;;;;;33.33;36.13;100259.19;4925592;28;99072;-55
2023/10/03 08:40:39;;;;;;;;;;;;;;;33.20;36.33;100241.47;4954266;28;98514;-61
2023/10/03 08:43:09;;;;;;;;;;;;;;;33.16;36.51;100252.69;4953533;28;99581;-55
2023/10/03 08:45:52;;;;;;;;;;;;;;;35.56;34.60;100252.84;4920102;28;98203;-56
2023/10/03 08:48:24;;;;;;;;;;;;;;;37.26;33.18;100256.31;4972085;27;98316;-56
2023/10/03 08:50:52;;;;;;;;;;;;;;;38.42;33.37;100268.44;4939437;28;98490;-55
2023/10/03 08:53:27;;;;;;;;;;;;;;;39.54;32.41;100252.00;4922266;28;98665;-62
2023/10/03 08:56:03;;;;;;;;;;;;;;;39.47;32.60;100241.81;4941051;28;98656;-61
2023/10/03 08:58:29;;;;;;;;;;;;;;;39.09;33.30;100241.50;4940086;28;98591;-62
2023/10/03 09:00:59;;;;;;;;;;;;;;;37.71;35.43;100224.16;4952280;28;98638;-62
2023/10/03 09:03:29;;;;;;;;;;;;;;;37.74;35.74;100212.00;4970057;27;98196;-62
2023/10/03 09:05:58;;;;;;;;;;;;;;;38.10;35.08;100210.63;4933089;28;98589;-61
2023/10/03 09:08:26;;;;;;;;;;;;;;;36.64;36.25;100197.84;4952739;28;99071;-62
2023/10/03 09:10:52;;;;;;;;;;;;;;;35.55;36.65;100198.03;4951649;28;98781;-62
2023/10/03 09:13:28;;;;;;;;;;;;;;;34.82;36.88;100189.19;4921394;28;98337;-62
2023/10/03 09:16:02;;;;;;;;;;;;;;;35.04;35.67;100189.44;4955298;28;100352;-62
2023/10/03 09:18:40;;;;;;;;;;;;;;;35.46;35.69;100181.88;4959369;27;102490;-56
2023/10/03 09:21:15;;;;;;;;;;;;;;;34.70;36.33;100179.50;4955446;28;98596;-55
2023/10/03 09:24:09;;;;;;;;;;;;;;;33.85;36.69;100165.56;4940825;28;98181;-62
2023/10/03 09:26:45;;;;;;;;;;;;;;;33.15;37.90;100172.19;4959735;28;99075;-59
2023/10/03 09:29:30;;;;;;;;;;;;;;;32.55;37.36;100168.50;4956703;28;98350;-55
2023/10/03 09:32:00;;;;;;;;;;;;;;;31.92;38.06;100167.03;4928065;28;98327;-62
2023/10/03 09:34:32;;;;;;;;;;;;;;;31.45;38.33;100164.06;4936726;28;100160;-55
2023/10/03 09:37:08;;;;;;;;;;;;;;;31.23;37.82;100154.34;4938579;27;99705;-55
2023/10/03 09:39:47;;;;;;;;;;;;;;;31.32;37.16;100160.22;4969148;27;99070;-56
2023/10/03 09:42:17;;;;;;;;;;;;;;;31.61;37.57;100160.69;4955540;27;98300;-55
2023/10/03 09:44:43;;;;;;;;;;;;;;;31.99;35.98;100155.81;4949348;28;98781;-61
2023/10/03 09:47:12;;;;;;;;;;;;;;;32.00;37.32;100154.59;4933127;28;98129;-55
2023/10/03 09:49:38;;;;;;;;;;;;;;;31.86;37.77;100154.78;4929455;28;98642;-56
2023/10/03 09:52:08;;;;;;;;;;;;;;;31.72;37.15;100152.97;4934419;28;98207;-62
2023/10/03 09:54:35;;;;;;;;;;;;;;;31.67;37.82;100150.63;4948210;27;98877;-62
2023/10/03 09:57:01;;;;;;;;;;;;;;;31.76;37.10;100144.56;4941541;28;107861;-62
2023/10/03 09:59:27;;;;;;;;;;;;;;;31.85;37.58;100141.28;4968780;27;98151;-55
2023/10/03 10:01:56;;;;;;;;;;;;;;;31.88;37.21;100140.44;4936946;28;99298;-56
2023/10/03 10:04:23;;;;;;;;;;;;;;;31.87;37.39;100136.06;4933637;28;98705;-56
2023/10/03 10:07:27;;;;;;;;;;;;;;;31.66;37.51;100143.50;4954806;28;99055;-62
2023/10/03 10:10:09;;;;;;;;;;;;;;;31.27;38.13;100136.41;4953218;28;98583;-62
2023/10/03 10:12:38;;;;;;;;;;;;;;;31.00;38.27;100135.53;4940553;28;99178;-62
2023/10/03 10:17:51;;;;;;;;;;;;;;;30.71;38.68;100137.81;4967299;27;97951;-62
2023/10/03 10:20:43;;;;;;;;;;;;;;;31.11;37.91;100115.94;4929424;28;98850;-61
2023/10/03 10:25:41;;;;;;;;;;;;;;;31.91;37.23;100125.66;4952015;28;98379;-62
2023/10/03 10:28:17;;;;;;;;;;;;;;;32.32;37.09;100128.19;4940157;28;99928;-56
2023/10/03 10:31:17;;;;;;;;;;;;;;;32.39;36.39;100116.16;4951737;28;98211;-62
2023/10/03 10:33:43;;;;;;;;;;;;;;;32.49;36.99;100117.97;4952949;28;98532;-62
2023/10/03 10:36:10;;;;;;;;;;;;;;;32.53;36.37;100115.13;4965578;27;98766;-62
2023/10/03 10:38:36;;;;;;;;;;;;;;;32.99;36.62;100109.50;4971153;27;100624;-56
2023/10/03 10:41:12;;;;;;;;;;;;;;;33.12;36.04;100104.03;4953288;28;98124;-56
2023/10/03 10:44:18;;;;;;;;;;;;;;;33.31;36.46;100110.06;4949200;28;99325;-56
2023/10/03 10:46:46;;;;;;;;;;;;;;;33.69;36.20;100107.66;4967238;27;98143;-56
2023/10/03 10:49:31;;;;;;;;;;;;;;;33.55;36.26;100117.13;4951319;28;100691;-62
2023/10/03 10:51:57;;;;;;;;;;;;;;;33.24;36.97;100110.97;4953304;28;98363;-56
2023/10/03 10:54:24;;;;;;;;;;;;;;;33.06;36.72;100111.38;4966122;27;99513;-61
2023/10/03 10:57:00;;;;;;;;;;;;;;;32.80;36.73;100109.44;4936811;28;99353;-56
2023/10/03 10:59:31;;;;;;;;;;;;;;;32.38;37.05;100106.97;4935011;28;100497;-56
2023/10/03 11:02:00;;;;;;;;;;;;;;;32.21;36.94;100111.66;4939002;28;98475;-56
2023/10/03 11:04:27;;;;;;;;;;;;;;;32.25;36.89;100128.31;4951482;28;100072;-62
2023/10/03 11:06:53;;;;;;;;;;;;;;;31.81;37.33;100127.38;4937012;28;99364;-62
2023/10/03 11:09:23;;;;;;;;;;;;;;;31.53;37.68;100126.56;4937247;28;98034;-55
2023/10/03 11:11:51;;;;;;;;;;;;;;;31.36;37.73;100127.59;4953769;28;98330;-61
2023/10/03 11:14:29;;;;;;;;;;;;;;;31.39;37.60;100115.63;4935279;28;98413;-56
2023/10/03 11:17:01;;;;;;;;;;;;;;;31.71;37.14;100109.59;4912733;28;117476;-62
2023/10/03 11:19:30;;;;;;;;;;;;;;;32.16;36.66;100109.34;4915355;28;100191;-62
2023/10/03 11:21:56;;;;;;;;;;;;;;;33.33;36.04;100097.25;4935539;28;98798;-62
2023/10/03 11:24:26;;;;;;;;;;;;;;;33.96;35.73;100107.44;4949927;28;123756;-62
2023/10/03 11:26:59;;;;;;;;;;;;;;;34.31;35.71;100114.16;4950763;28;99012;-56
2023/10/03 11:29:43;;;;;;;;;;;;;;;33.93;36.05;100099.91;4933812;28;98627;-62
2023/10/03 11:32:30;;;;;;;;;;;;;;;33.72;35.92;100098.41;4951411;28;99338;-56
2023/10/03 11:34:57;;;;;;;;;;;;;;;33.19;36.83;100100.31;4934453;28;98405;-62
2023/10/03 11:37:40;;;;;;;;;;;;;;;32.55;37.05;100080.03;4913536;28;100388;-56
2023/10/03 11:40:17;;;;;;;;;;;;;;;32.08;37.17;100085.59;4934798;28;98746;-62
2023/10/03 11:43:03;;;;;;;;;;;;;;;31.72;37.49;100085.34;4919413;28;99135;-56
2023/10/03 11:45:29;;;;;;;;;;;;;;;31.43;37.69;100085.72;4936669;28;98446;-62
2023/10/03 11:48:07;;;;;;;;;;;;;;;31.40;37.79;100083.00;4938307;28;98316;-56
2023/10/03 11:50:40;;;;;;;;;;;;;;;31.33;37.88;100078.31;4956329;28;99791;-62
2023/10/03 11:53:08;;;;;;;;;;;;;;;31.22;37.95;100078.44;4934939;28;102510;-60
2023/10/03 11:55:36;;;;;;;;;;;;;;;31.22;38.18;100075.66;4954550;28;99662;-56
2023/10/03 11:58:03;;;;;;;;;;;;;;;31.70;37.48;100073.81;4957585;28;99464;-56
2023/10/03 12:00:29;;;;;;;;;;;;;;;31.38;37.67;100065.94;4958765;28;99775;-61
2023/10/03 12:02:55;;;;;;;;;;;;;;;31.29;37.70;100069.22;4950779;28;100280;-56
2023/10/03 12:05:22;;;;;;;;;;;;;;;31.22;37.76;100064.50;4937401;28;98548;-56
2023/10/03 12:07:50;;;;;;;;;;;;;;;31.37;37.37;100064.38;4920617;28;98107;-56
2023/10/03 12:10:20;;;;;;;;;;;;;;;31.60;37.19;100067.22;4933021;28;98321;-56
2023/10/03 12:12:46;;;;;;;;;;;;;;;31.89;37.06;100073.16;4951031;28;98029;-56
2023/10/03 12:15:13;;;;;;;;;;;;;;;32.08;36.86;100082.03;4966729;27;98361;-61
2023/10/03 12:17:40;;;;;;;;;;;;;;;31.66;37.15;100059.94;4939421;28;99395;-55
2023/10/03 12:20:11;;;;;;;;;;;;;;;31.42;37.78;100063.88;4953322;28;99925;-55
2023/10/03 12:22:43;;;;;;;;;;;;;;;31.01;38.03;100073.94;4955735;27;98477;-56
2023/10/03 12:25:12;;;;;;;;;;;;;;;30.65;38.16;100070.72;4950961;28;100063;-61
2023/10/03 12:27:39;;;;;;;;;;;;;;;30.37;38.49;100068.22;4952497;28;98658;-55
2023/10/03 12:30:11;;;;;;;;;;;;;;;30.25;38.58;100073.09;4955177;28;98398;-61
2023/10/03 12:32:38;;;;;;;;;;;;;;;30.19;38.61;100080.31;4951230;28;98716;-56
2023/10/03 12:35:06;;;;;;;;;;;;;;;30.15;38.45;100093.41;4955313;28;98165;-56
2023/10/03 12:37:32;;;;;;;;;;;;;;;30.01;38.75;100096.28;4955618;28;98711;-62
2023/10/03 12:40:02;;;;;;;;;;;;;;;29.83;38.70;100107.53;4966806;27;98669;-55
2023/10/03 12:42:28;;;;;;;;;;;;;;;29.74;38.44;100098.84;4952742;28;101406;-55
2023/10/03 12:44:56;;;;;;;;;;;;;;;29.65;38.94;100084.63;4938796;28;98996;-55
2023/10/03 12:47:23;;;;;;;;;;;;;;;29.50;38.82;100097.78;4953599;28;99751;-61
2023/10/03 12:49:49;;;;;;;;;;;;;;;29.33;39.09;100102.22;4955787;28;98428;-62
2023/10/03 12:52:15;;;;;;;;;;;;;;;29.21;39.15;100091.59;4971303;27;98797;-61